createdAt,value
2022-11-19T00:02:24.012Z,14.70
2022-11-19T00:07:21.021Z,14.66
2022-11-19T00:12:36.262Z,14.24
2022-11-19T00:17:34.114Z,14.53
2022-11-19T00:22:31.183Z,14.49
2022-11-19T00:27:28.145Z,14.46
2022-11-19T00:32:25.499Z,14.29
2022-11-19T00:37:23.388Z,14.45
2022-11-19T00:42:21.067Z,14.19
2022-11-19T00:47:20.853Z,14.31
2022-11-19T00:52:20.790Z,13.92
2022-11-19T00:57:18.772Z,14.20
2022-11-19T01:02:16.043Z,14.24
2022-11-19T01:07:13.403Z,14.30
2022-11-19T01:12:10.491Z,14.33
2022-11-19T01:17:08.375Z,14.08
2022-11-19T01:22:05.314Z,14.35
2022-11-19T01:27:02.302Z,14.35
2022-11-19T01:31:59.346Z,14.24
2022-11-19T01:36:57.049Z,13.76
2022-11-19T01:41:54.212Z,13.72
2022-11-19T01:46:51.345Z,14.27
2022-11-19T01:51:52.039Z,14.24
2022-11-19T01:56:49.955Z,14.27
2022-11-19T02:01:47.315Z,14.12
2022-11-19T02:06:45.645Z,14.07
2022-11-19T02:12:13.337Z,14.18
2022-11-19T02:17:19.234Z,13.97
2022-11-19T02:22:41.552Z,14.13
2022-11-19T02:28:14.839Z,14.20
2022-11-19T02:33:16.979Z,14.19
2022-11-19T02:38:24.123Z,14.15
2022-11-19T02:43:25.962Z,14.08
2022-11-19T02:48:29.979Z,14.31
2022-11-19T02:53:26.956Z,14.03
2022-11-19T02:58:38.620Z,14.31
2022-11-19T03:03:54.690Z,14.26
2022-11-19T03:08:51.932Z,14.20
2022-11-19T03:14:13.462Z,13.88
2022-11-19T03:19:23.769Z,14.25
2022-11-19T03:24:24.346Z,14.09
2022-11-19T03:29:25.183Z,14.04
2022-11-19T03:34:25.272Z,14.15
2022-11-19T03:39:23.177Z,14.10
2022-11-19T03:44:25.816Z,14.09
2022-11-19T03:49:31.042Z,13.76
2022-11-19T03:54:28.311Z,13.91
2022-11-19T03:59:29.687Z,13.85
2022-11-19T04:04:36.879Z,13.90
2022-11-19T04:09:34.392Z,13.77
2022-11-19T04:14:31.708Z,13.37
2022-11-19T04:19:29.404Z,13.58
2022-11-19T04:24:26.456Z,13.21
2022-11-19T04:29:23.433Z,13.16
2022-11-19T04:34:20.511Z,13.39
2022-11-19T04:39:18.534Z,13.29
2022-11-19T04:44:15.864Z,13.22
2022-11-19T04:49:13.026Z,13.07
2022-11-19T04:54:10.012Z,13.31
2022-11-19T04:59:07.755Z,13.17
2022-11-19T05:04:05.051Z,12.65
2022-11-19T05:09:02.167Z,13.03
2022-11-19T05:13:59.281Z,12.83
2022-11-19T05:18:57.330Z,12.51
2022-11-19T05:23:56.472Z,12.60
2022-11-19T05:28:53.513Z,13.19
2022-11-19T05:33:52.679Z,13.25
2022-11-19T05:38:50.586Z,13.31
2022-11-19T05:43:47.622Z,13.08
2022-11-19T05:48:45.140Z,13.12
2022-11-19T05:53:42.500Z,12.97
2022-11-19T05:58:40.356Z,13.63
2022-11-19T06:03:37.789Z,13.67
2022-11-19T06:08:34.691Z,13.74
2022-11-19T06:13:31.799Z,13.73
2022-11-19T06:18:29.929Z,13.19
2022-11-19T06:23:27.700Z,13.73
2022-11-19T06:28:24.730Z,13.76
2022-11-19T06:33:22.035Z,14.00
2022-11-19T06:38:20.909Z,14.22
2022-11-19T06:43:27.172Z,13.90
2022-11-19T06:48:24.602Z,14.14
2022-11-19T06:53:22.983Z,14.33
2022-11-19T06:58:20.202Z,14.33
2022-11-19T07:03:18.693Z,14.48
2022-11-19T07:08:21.493Z,14.47
2022-11-19T07:13:19.480Z,14.63
2022-11-19T07:18:17.687Z,14.25
2022-11-19T07:23:14.878Z,14.56
2022-11-19T07:28:14.885Z,14.31
2022-11-19T07:33:14.771Z,14.89
2022-11-19T07:38:12.183Z,15.18
2022-11-19T07:43:09.511Z,15.41
2022-11-19T07:48:08.211Z,15.31
2022-11-19T07:53:08.740Z,15.93
2022-11-19T07:58:06.555Z,16.34
2022-11-19T08:03:05.217Z,16.41
2022-11-19T08:08:02.817Z,16.47
2022-11-19T08:13:05.488Z,16.45
2022-11-19T08:18:16.839Z,16.25
2022-11-19T08:23:16.720Z,16.56
2022-11-19T08:28:14.826Z,16.91
2022-11-19T08:33:11.901Z,16.93
2022-11-19T08:38:12.366Z,17.13
2022-11-19T08:43:09.487Z,17.64
2022-11-19T08:48:09.865Z,17.72
2022-11-19T08:53:07.541Z,17.40
2022-11-19T08:58:07.589Z,17.61
2022-11-19T09:03:06.514Z,16.95
2022-11-19T09:08:09.654Z,17.15
2022-11-19T09:13:23.449Z,17.38
2022-11-19T09:18:33.856Z,17.23
2022-11-19T09:23:35.867Z,17.15
2022-11-19T09:28:36.650Z,16.75
2022-11-19T09:33:42.034Z,17.33
2022-11-19T09:38:40.508Z,17.28
2022-11-19T09:43:53.976Z,17.63
2022-11-19T09:48:55.153Z,17.41
2022-11-19T09:53:57.083Z,17.38
2022-11-19T09:58:57.051Z,16.83
2022-11-19T10:03:56.553Z,16.88
2022-11-19T10:09:26.754Z,17.02
2022-11-19T10:14:47.564Z,17.02
2022-11-19T10:19:59.742Z,17.29
2022-11-19T10:25:04.720Z,17.34
2022-11-19T10:30:06.541Z,17.31
2022-11-19T10:35:16.879Z,16.94
2022-11-19T10:40:20.534Z,17.09
2022-11-19T10:45:21.934Z,17.05
2022-11-19T10:50:23.717Z,17.11
2022-11-19T10:55:28.856Z,16.79
2022-11-19T11:00:26.579Z,17.10
2022-11-19T11:05:29.331Z,17.96
2022-11-19T11:10:34.804Z,18.38
2022-11-19T11:15:32.822Z,18.60
2022-11-19T11:20:32.762Z,18.30
2022-11-19T11:25:38.993Z,18.40
2022-11-19T11:30:36.508Z,18.46
2022-11-19T11:35:38.037Z,19.11
2022-11-19T11:40:35.668Z,19.24
2022-11-19T11:45:35.300Z,19.04
2022-11-19T11:50:34.941Z,18.61
2022-11-19T11:55:33.060Z,18.84
2022-11-19T12:00:38.901Z,18.61
2022-11-19T12:05:51.077Z,18.77
2022-11-19T12:10:56.304Z,18.26
2022-11-19T12:16:05.415Z,18.45
2022-11-19T12:21:11.728Z,18.23
2022-11-19T12:26:20.281Z,18.34
2022-11-19T12:31:32.090Z,18.31
2022-11-19T12:36:38.371Z,18.25
2022-11-19T12:41:58.518Z,18.74
2022-11-19T12:47:00.723Z,19.17
2022-11-19T12:52:08.630Z,19.21
2022-11-19T12:57:33.100Z,18.91
2022-11-19T13:02:46.295Z,18.65
2022-11-19T13:07:47.603Z,18.27
2022-11-19T13:12:50.569Z,18.61
2022-11-19T13:17:52.584Z,18.92
2022-11-19T13:22:55.507Z,18.59
2022-11-19T13:27:58.068Z,18.87
2022-11-19T13:33:05.400Z,18.01
2022-11-19T13:38:12.871Z,18.38
2022-11-19T13:43:33.118Z,18.32
2022-11-19T13:48:34.555Z,18.41
2022-11-19T13:53:38.532Z,18.22
2022-11-19T13:58:37.795Z,18.05
2022-11-19T14:03:53.603Z,18.20
2022-11-19T14:09:08.005Z,18.00
2022-11-19T14:14:32.320Z,17.59
2022-11-19T14:19:53.001Z,17.86
2022-11-19T14:25:13.905Z,17.75
2022-11-19T14:30:19.890Z,17.39
2022-11-19T14:35:38.196Z,17.50
2022-11-19T14:40:42.468Z,17.26
2022-11-19T14:46:19.652Z,17.20
2022-11-19T14:51:18.541Z,17.10
2022-11-19T14:56:22.321Z,16.93
2022-11-19T15:01:23.321Z,17.00
2022-11-19T15:06:21.258Z,16.97
2022-11-19T15:11:20.752Z,16.73
2022-11-19T15:16:21.972Z,16.42
2022-11-19T15:21:42.303Z,15.40
2022-11-19T15:27:58.731Z,15.44
2022-11-19T15:33:46.775Z,15.82
2022-11-19T15:38:50.438Z,15.37
2022-11-19T15:43:51.456Z,15.83
2022-11-19T15:49:00.340Z,15.41
2022-11-19T15:54:02.137Z,15.25
2022-11-19T15:59:00.990Z,15.04
2022-11-19T16:03:59.827Z,14.95
2022-11-19T16:09:02.899Z,14.66
2022-11-19T16:14:28.315Z,14.29
2022-11-19T16:19:26.372Z,14.34
2022-11-19T16:24:43.520Z,14.11
2022-11-19T16:29:43.252Z,14.22
2022-11-19T16:34:44.621Z,14.53
2022-11-19T16:39:50.330Z,14.40
2022-11-19T16:44:49.358Z,14.28
2022-11-19T16:49:58.905Z,14.18
2022-11-19T16:54:56.386Z,14.49
2022-11-19T16:59:56.869Z,14.29
2022-11-19T17:04:58.391Z,14.86
2022-11-19T17:10:26.249Z,15.05
2022-11-19T17:15:36.259Z,14.95
2022-11-19T17:20:50.991Z,14.82
2022-11-19T17:25:49.766Z,14.34
2022-11-19T17:30:49.052Z,14.25
2022-11-19T17:35:47.495Z,13.74
2022-11-19T17:40:47.791Z,13.57
2022-11-19T17:45:45.194Z,13.93
2022-11-19T17:50:51.827Z,13.85
2022-11-19T17:55:52.736Z,13.75
2022-11-19T18:00:51.189Z,14.00
2022-11-19T18:05:52.374Z,13.89
2022-11-19T18:10:50.346Z,13.42
2022-11-19T18:15:47.559Z,12.82
2022-11-19T18:20:44.526Z,13.26
2022-11-19T18:25:41.924Z,13.23
2022-11-19T18:30:40.235Z,13.15
2022-11-19T18:35:37.288Z,12.52
2022-11-19T18:40:36.316Z,13.09
2022-11-19T18:45:34.400Z,13.03
2022-11-19T18:50:33.242Z,12.45
2022-11-19T18:55:30.719Z,12.97
2022-11-19T19:00:27.748Z,13.07
2022-11-19T19:05:28.681Z,13.09
2022-11-19T19:10:26.495Z,13.12
2022-11-19T19:15:24.394Z,12.67
2022-11-19T19:20:21.401Z,13.17
2022-11-19T19:25:19.445Z,13.12
2022-11-19T19:30:18.328Z,12.85
2022-11-19T19:35:15.767Z,12.82
2022-11-19T19:40:15.438Z,12.81
2022-11-19T19:45:13.418Z,12.71
2022-11-19T19:50:11.560Z,12.76
2022-11-19T19:55:09.664Z,12.74
2022-11-19T20:00:08.586Z,13.00
2022-11-19T20:05:10.380Z,12.71
2022-11-19T20:10:10.596Z,12.87
2022-11-19T20:15:09.959Z,12.83
2022-11-19T20:20:08.110Z,12.64
2022-11-19T20:25:11.041Z,12.36
2022-11-19T20:30:12.330Z,12.58
2022-11-19T20:35:09.613Z,12.49
2022-11-19T20:40:09.246Z,12.01
2022-11-19T20:45:07.737Z,12.31
2022-11-19T20:50:05.416Z,12.07
2022-11-19T20:55:06.652Z,12.01
2022-11-19T21:00:06.509Z,12.08
2022-11-19T21:05:04.098Z,11.88
2022-11-19T21:10:06.423Z,11.80
2022-11-19T21:15:06.571Z,11.73
2022-11-19T21:20:03.779Z,11.58
2022-11-19T21:25:01.135Z,11.73
2022-11-19T21:29:58.173Z,11.53
2022-11-19T21:34:55.936Z,11.68
2022-11-19T21:39:52.910Z,11.09
2022-11-19T21:44:49.910Z,11.41
2022-11-19T21:49:46.800Z,11.52
2022-11-19T21:54:44.394Z,10.94
2022-11-19T21:59:41.510Z,11.34
2022-11-19T22:04:38.578Z,11.01
2022-11-19T22:09:35.686Z,11.03
2022-11-19T22:14:35.965Z,10.93
2022-11-19T22:19:33.043Z,11.12
2022-11-19T22:24:30.258Z,11.21
2022-11-19T22:29:27.375Z,10.88
2022-11-19T22:34:25.262Z,11.40
2022-11-19T22:39:22.494Z,11.00
2022-11-19T22:44:19.874Z,11.46
2022-11-19T22:49:16.971Z,11.33
2022-11-19T22:54:15.516Z,11.62
2022-11-19T22:59:12.473Z,11.27
2022-11-19T23:04:14.059Z,11.70
2022-11-19T23:09:11.011Z,11.88
2022-11-19T23:14:11.035Z,11.93
2022-11-19T23:19:09.013Z,11.38
2022-11-19T23:24:06.504Z,11.69
2022-11-19T23:29:04.438Z,11.95
2022-11-19T23:34:02.410Z,12.21
2022-11-19T23:38:59.981Z,12.22
2022-11-19T23:43:56.822Z,12.20
2022-11-19T23:48:55.584Z,12.39
2022-11-19T23:53:53.289Z,11.91
2022-11-19T23:58:56.055Z,12.45
